sensor_id;sensor_type;location;lat;lon;timestamp;temperature;humidity
15003;DHT22;7597;53.590;10.020;2022-08-01T00:00:41;17.70;99.90
15003;DHT22;7597;53.590;10.020;2022-08-01T00:05:49;17.70;99.90
15003;DHT22;7597;53.590;10.020;2022-08-01T00:08:15;17.70;99.90
15003;DHT22;7597;53.590;10.020;2022-08-01T00:10:42;17.70;99.90
15003;DHT22;7597;53.590;10.020;2022-08-01T00:13:10;17.60;99.90
15003;DHT22;7597;53.590;10.020;2022-08-01T00:15:36;17.60;99.90
15003;DHT22;7597;53.590;10.020;2022-08-01T00:18:04;17.70;99.90
15003;DHT22;7597;53.590;10.020;2022-08-01T00:20:31;17.70;99.90
15003;DHT22;7597;53.590;10.020;2022-08-01T00:22:58;17.60;99.90
15003;DHT22;7597;53.590;10.020;2022-08-01T00:25:25;17.70;99.90
15003;DHT22;7597;53.590;10.020;2022-08-01T00:27:52;17.70;99.90
15003;DHT22;7597;53.590;10.020;2022-08-01T00:30:18;17.70;99.90
15003;DHT22;7597;53.590;10.020;2022-08-01T00:32:46;17.60;99.90
15003;DHT22;7597;53.590;10.020;2022-08-01T00:35:13;17.60;99.90
15003;DHT22;7597;53.590;10.020;2022-08-01T00:37:40;17.60;99.90
15003;DHT22;7597;53.590;10.020;2022-08-01T00:40:07;17.60;99.90
15003;DHT22;7597;53.590;10.020;2022-08-01T00:42:34;17.60;99.90
15003;DHT22;7597;53.590;10.020;2022-08-01T00:45:01;17.60;99.90
15003;DHT22;7597;53.590;10.020;2022-08-01T00:47:28;17.60;99.90
15003;DHT22;7597;53.590;10.020;2022-08-01T00:49:54;17.60;99.90
15003;DHT22;7597;53.590;10.020;2022-08-01T00:52:21;17.60;99.90
15003;DHT22;7597;53.590;10.020;2022-08-01T00:54:48;17.60;99.90
15003;DHT22;7597;53.590;10.020;2022-08-01T00:57:15;17.60;99.90
15003;DHT22;7597;53.590;10.020;2022-08-01T00:59:41;17.60;99.90
15003;DHT22;7597;53.590;10.020;2022-08-01T01:02:08;17.60;99.90
15003;DHT22;7597;53.590;10.020;2022-08-01T01:04:35;17.60;99.90
15003;DHT22;7597;53.590;10.020;2022-08-01T01:07:09;17.60;99.90
15003;DHT22;7597;53.590;10.020;2022-08-01T01:09:42;17.60;99.90
15003;DHT22;7597;53.590;10.020;2022-08-01T01:15:08;17.50;99.90
15003;DHT22;7597;53.590;10.020;2022-08-01T01:17:36;17.50;99.90
15003;DHT22;7597;53.590;10.020;2022-08-01T01:20:00;17.50;99.90
15003;DHT22;7597;53.590;10.020;2022-08-01T01:25:51;17.50;99.90
15003;DHT22;7597;53.590;10.020;2022-08-01T01:28:27;17.50;99.90
15003;DHT22;7597;53.590;10.020;2022-08-01T01:30:53;17.50;99.90
15003;DHT22;7597;53.590;10.020;2022-08-01T01:33:21;17.50;99.90
15003;DHT22;7597;53.590;10.020;2022-08-01T01:35:48;17.60;99.90
15003;DHT22;7597;53.590;10.020;2022-08-01T01:38:19;17.60;99.90
15003;DHT22;7597;53.590;10.020;2022-08-01T01:40:46;17.60;99.90
15003;DHT22;7597;53.590;10.020;2022-08-01T01:43:12;17.60;99.90
15003;DHT22;7597;53.590;10.020;2022-08-01T01:45:39;17.60;99.90
15003;DHT22;7597;53.590;10.020;2022-08-01T01:48:06;17.60;99.90
15003;DHT22;7597;53.590;10.020;2022-08-01T01:50:33;17.60;99.90
15003;DHT22;7597;53.590;10.020;2022-08-01T01:52:59;17.60;99.90
15003;DHT22;7597;53.590;10.020;2022-08-01T01:55:27;17.60;99.90
15003;DHT22;7597;53.590;10.020;2022-08-01T01:57:53;17.60;99.90
15003;DHT22;7597;53.590;10.020;2022-08-01T02:00:20;17.60;99.90
15003;DHT22;7597;53.590;10.020;2022-08-01T02:02:49;17.60;99.90
15003;DHT22;7597;53.590;10.020;2022-08-01T02:05:16;17.60;99.90
15003;DHT22;7597;53.590;10.020;2022-08-01T02:07:43;17.60;99.90
15003;DHT22;7597;53.590;10.020;2022-08-01T02:10:10;17.60;99.90
15003;DHT22;7597;53.590;10.020;2022-08-01T02:12:37;17.60;99.90
15003;DHT22;7597;53.590;10.020;2022-08-01T02:15:04;17.50;99.90
15003;DHT22;7597;53.590;10.020;2022-08-01T02:17:31;17.50;99.90
15003;DHT22;7597;53.590;10.020;2022-08-01T02:19:58;17.50;99.90
15003;DHT22;7597;53.590;10.020;2022-08-01T02:22:31;17.50;99.90
15003;DHT22;7597;53.590;10.020;2022-08-01T02:25:00;17.50;99.90
15003;DHT22;7597;53.590;10.020;2022-08-01T02:27:46;17.50;99.90
15003;DHT22;7597;53.590;10.020;2022-08-01T02:30:12;17.50;99.90
15003;DHT22;7597;53.590;10.020;2022-08-01T02:32:38;17.50;99.90
15003;DHT22;7597;53.590;10.020;2022-08-01T02:35:07;17.60;99.90
15003;DHT22;7597;53.590;10.020;2022-08-01T02:37:34;17.50;99.90
15003;DHT22;7597;53.590;10.020;2022-08-01T02:40:00;17.50;99.90
15003;DHT22;7597;53.590;10.020;2022-08-01T02:42:28;17.50;99.90
15003;DHT22;7597;53.590;10.020;2022-08-01T02:44:55;17.50;99.90
15003;DHT22;7597;53.590;10.020;2022-08-01T02:47:22;17.50;99.90
15003;DHT22;7597;53.590;10.020;2022-08-01T02:49:50;17.50;99.90
15003;DHT22;7597;53.590;10.020;2022-08-01T02:52:17;17.50;99.90
15003;DHT22;7597;53.590;10.020;2022-08-01T02:54:45;17.50;99.90
15003;DHT22;7597;53.590;10.020;2022-08-01T02:57:13;17.40;99.90
15003;DHT22;7597;53.590;10.020;2022-08-01T02:59:40;17.50;99.90
15003;DHT22;7597;53.590;10.020;2022-08-01T03:02:08;17.40;99.90
15003;DHT22;7597;53.590;10.020;2022-08-01T03:04:35;17.40;99.90
15003;DHT22;7597;53.590;10.020;2022-08-01T03:07:03;17.40;99.90
15003;DHT22;7597;53.590;10.020;2022-08-01T03:09:30;17.30;99.90
15003;DHT22;7597;53.590;10.020;2022-08-01T03:11:57;17.50;99.90
15003;DHT22;7597;53.590;10.020;2022-08-01T03:14:23;17.50;99.90
15003;DHT22;7597;53.590;10.020;2022-08-01T03:16:50;17.40;99.90
15003;DHT22;7597;53.590;10.020;2022-08-01T03:19:18;17.40;99.90
15003;DHT22;7597;53.590;10.020;2022-08-01T03:21:47;17.40;99.90
15003;DHT22;7597;53.590;10.020;2022-08-01T03:24:15;17.40;99.90
15003;DHT22;7597;53.590;10.020;2022-08-01T03:26:46;17.40;99.90
15003;DHT22;7597;53.590;10.020;2022-08-01T03:29:18;17.40;99.90
15003;DHT22;7597;53.590;10.020;2022-08-01T03:31:44;17.40;99.90
15003;DHT22;7597;53.590;10.020;2022-08-01T03:34:11;17.40;99.90
15003;DHT22;7597;53.590;10.020;2022-08-01T03:36:43;17.40;99.90
15003;DHT22;7597;53.590;10.020;2022-08-01T03:39:06;17.30;99.90
15003;DHT22;7597;53.590;10.020;2022-08-01T03:41:34;17.30;99.90
15003;DHT22;7597;53.590;10.020;2022-08-01T03:44:02;17.30;99.90
15003;DHT22;7597;53.590;10.020;2022-08-01T03:46:33;17.30;99.90
15003;DHT22;7597;53.590;10.020;2022-08-01T03:48:58;16.60;99.90
15003;DHT22;7597;53.590;10.020;2022-08-01T03:51:25;17.40;99.90
15003;DHT22;7597;53.590;10.020;2022-08-01T03:53:55;17.40;99.90
15003;DHT22;7597;53.590;10.020;2022-08-01T03:56:22;17.40;99.90
15003;DHT22;7597;53.590;10.020;2022-08-01T03:58:49;17.40;99.90
15003;DHT22;7597;53.590;10.020;2022-08-01T04:01:16;17.40;99.90
15003;DHT22;7597;53.590;10.020;2022-08-01T04:03:43;17.40;99.90
15003;DHT22;7597;53.590;10.020;2022-08-01T04:06:09;17.40;99.90
15003;DHT22;7597;53.590;10.020;2022-08-01T04:08:37;17.30;99.90
15003;DHT22;7597;53.590;10.020;2022-08-01T04:11:04;17.40;99.90
15003;DHT22;7597;53.590;10.020;2022-08-01T04:13:30;17.40;99.90
15003;DHT22;7597;53.590;10.020;2022-08-01T04:15:57;17.30;99.90
15003;DHT22;7597;53.590;10.020;2022-08-01T04:18:24;17.30;99.90
15003;DHT22;7597;53.590;10.020;2022-08-01T04:20:50;17.30;99.90
15003;DHT22;7597;53.590;10.020;2022-08-01T04:23:18;17.30;99.90
15003;DHT22;7597;53.590;10.020;2022-08-01T04:25:45;17.30;99.90
15003;DHT22;7597;53.590;10.020;2022-08-01T04:28:12;17.30;99.90
15003;DHT22;7597;53.590;10.020;2022-08-01T04:30:39;17.40;99.90
15003;DHT22;7597;53.590;10.020;2022-08-01T04:33:06;17.30;99.90
15003;DHT22;7597;53.590;10.020;2022-08-01T04:35:32;17.40;99.90
15003;DHT22;7597;53.590;10.020;2022-08-01T04:37:59;17.40;99.90
15003;DHT22;7597;53.590;10.020;2022-08-01T04:40:25;17.50;99.90
15003;DHT22;7597;53.590;10.020;2022-08-01T04:42:52;17.50;99.90
15003;DHT22;7597;53.590;10.020;2022-08-01T04:45:19;17.60;99.90
15003;DHT22;7597;53.590;10.020;2022-08-01T04:47:45;17.60;99.90
15003;DHT22;7597;53.590;10.020;2022-08-01T04:50:12;17.50;99.90
15003;DHT22;7597;53.590;10.020;2022-08-01T04:52:39;17.50;99.90
15003;DHT22;7597;53.590;10.020;2022-08-01T04:55:06;17.50;99.90
15003;DHT22;7597;53.590;10.020;2022-08-01T04:57:34;17.50;99.90
15003;DHT22;7597;53.590;10.020;2022-08-01T05:00:00;17.50;99.90
15003;DHT22;7597;53.590;10.020;2022-08-01T05:02:27;17.50;99.90
15003;DHT22;7597;53.590;10.020;2022-08-01T05:04:54;17.60;99.90
15003;DHT22;7597;53.590;10.020;2022-08-01T05:07:20;17.50;99.90
15003;DHT22;7597;53.590;10.020;2022-08-01T05:09:47;17.50;99.90
15003;DHT22;7597;53.590;10.020;2022-08-01T05:12:14;17.50;99.90
15003;DHT22;7597;53.590;10.020;2022-08-01T05:14:42;17.50;99.90
15003;DHT22;7597;53.590;10.020;2022-08-01T05:17:09;17.50;13.70
15003;DHT22;7597;53.590;10.020;2022-08-01T05:19:36;17.50;22.20
15003;DHT22;7597;53.590;10.020;2022-08-01T05:22:04;17.50;1.00
15003;DHT22;7597;53.590;10.020;2022-08-01T05:24:29;17.40;1.00
15003;DHT22;7597;53.590;10.020;2022-08-01T05:26:56;17.40;1.00
15003;DHT22;7597;53.590;10.020;2022-08-01T05:29:22;17.50;1.00
15003;DHT22;7597;53.590;10.020;2022-08-01T05:31:49;17.50;1.00
15003;DHT22;7597;53.590;10.020;2022-08-01T05:34:16;17.50;1.00
15003;DHT22;7597;53.590;10.020;2022-08-01T05:36:43;17.50;1.00
15003;DHT22;7597;53.590;10.020;2022-08-01T05:39:12;17.60;1.00
15003;DHT22;7597;53.590;10.020;2022-08-01T05:41:39;17.60;1.00
15003;DHT22;7597;53.590;10.020;2022-08-01T05:44:07;17.60;1.00
15003;DHT22;7597;53.590;10.020;2022-08-01T05:46:33;17.70;1.00
15003;DHT22;7597;53.590;10.020;2022-08-01T05:49:01;17.70;1.00
15003;DHT22;7597;53.590;10.020;2022-08-01T05:51:27;17.70;1.00
15003;DHT22;7597;53.590;10.020;2022-08-01T05:56:54;17.80;1.00
15003;DHT22;7597;53.590;10.020;2022-08-01T05:59:25;17.80;1.00
15003;DHT22;7597;53.590;10.020;2022-08-01T06:01:52;17.80;1.00
15003;DHT22;7597;53.590;10.020;2022-08-01T06:04:19;17.70;1.00
15003;DHT22;7597;53.590;10.020;2022-08-01T06:06:46;17.70;1.00
15003;DHT22;7597;53.590;10.020;2022-08-01T06:09:16;17.60;1.00
15003;DHT22;7597;53.590;10.020;2022-08-01T06:11:45;17.60;1.00
15003;DHT22;7597;53.590;10.020;2022-08-01T06:14:12;17.60;1.00
15003;DHT22;7597;53.590;10.020;2022-08-01T06:16:38;17.80;1.00
15003;DHT22;7597;53.590;10.020;2022-08-01T06:19:05;17.80;99.90
15003;DHT22;7597;53.590;10.020;2022-08-01T06:21:32;17.80;99.90
15003;DHT22;7597;53.590;10.020;2022-08-01T06:23:59;17.90;99.90
15003;DHT22;7597;53.590;10.020;2022-08-01T06:26:26;18.10;99.90
15003;DHT22;7597;53.590;10.020;2022-08-01T06:28:52;18.10;99.90
15003;DHT22;7597;53.590;10.020;2022-08-01T06:31:19;18.10;99.90
15003;DHT22;7597;53.590;10.020;2022-08-01T06:33:46;18.10;99.90
15003;DHT22;7597;53.590;10.020;2022-08-01T06:36:12;18.00;99.90
15003;DHT22;7597;53.590;10.020;2022-08-01T06:38:41;18.00;99.90
15003;DHT22;7597;53.590;10.020;2022-08-01T06:41:07;18.00;99.90
15003;DHT22;7597;53.590;10.020;2022-08-01T06:43:34;17.90;99.90
15003;DHT22;7597;53.590;10.020;2022-08-01T06:46:01;17.90;99.90
15003;DHT22;7597;53.590;10.020;2022-08-01T06:48:28;17.90;99.90
15003;DHT22;7597;53.590;10.020;2022-08-01T06:50:54;17.90;99.90
15003;DHT22;7597;53.590;10.020;2022-08-01T06:53:21;18.10;99.90
15003;DHT22;7597;53.590;10.020;2022-08-01T06:55:49;18.30;99.90
15003;DHT22;7597;53.590;10.020;2022-08-01T06:58:16;18.30;99.90
15003;DHT22;7597;53.590;10.020;2022-08-01T07:00:44;18.40;99.90
15003;DHT22;7597;53.590;10.020;2022-08-01T07:03:10;18.30;99.90
15003;DHT22;7597;53.590;10.020;2022-08-01T07:05:37;18.40;99.90
15003;DHT22;7597;53.590;10.020;2022-08-01T07:08:04;18.40;99.90
15003;DHT22;7597;53.590;10.020;2022-08-01T07:10:31;18.50;97.20
15003;DHT22;7597;53.590;10.020;2022-08-01T07:12:57;18.50;75.20
15003;DHT22;7597;53.590;10.020;2022-08-01T07:15:24;18.60;72.80
15003;DHT22;7597;53.590;10.020;2022-08-01T07:17:50;18.60;24.60
15003;DHT22;7597;53.590;10.020;2022-08-01T07:20:17;18.70;1.00
15003;DHT22;7597;53.590;10.020;2022-08-01T07:22:46;18.60;1.00
15003;DHT22;7597;53.590;10.020;2022-08-01T07:25:12;18.70;1.00
15003;DHT22;7597;53.590;10.020;2022-08-01T07:27:39;18.60;1.00
15003;DHT22;7597;53.590;10.020;2022-08-01T07:30:06;18.60;1.00
15003;DHT22;7597;53.590;10.020;2022-08-01T07:32:34;18.60;1.00
15003;DHT22;7597;53.590;10.020;2022-08-01T07:35:01;18.70;1.00
15003;DHT22;7597;53.590;10.020;2022-08-01T07:37:27;18.70;1.00
15003;DHT22;7597;53.590;10.020;2022-08-01T07:39:55;18.80;1.00
15003;DHT22;7597;53.590;10.020;2022-08-01T07:42:22;19.20;1.00
15003;DHT22;7597;53.590;10.020;2022-08-01T07:44:49;19.10;1.00
15003;DHT22;7597;53.590;10.020;2022-08-01T07:47:16;19.10;1.00
15003;DHT22;7597;53.590;10.020;2022-08-01T07:49:43;19.30;1.00
15003;DHT22;7597;53.590;10.020;2022-08-01T07:52:10;19.20;1.00
15003;DHT22;7597;53.590;10.020;2022-08-01T07:54:36;19.30;1.00
15003;DHT22;7597;53.590;10.020;2022-08-01T07:57:04;19.20;1.00
15003;DHT22;7597;53.590;10.020;2022-08-01T07:59:34;19.20;1.00
15003;DHT22;7597;53.590;10.020;2022-08-01T08:02:01;19.30;1.00
15003;DHT22;7597;53.590;10.020;2022-08-01T08:04:28;19.30;1.00
15003;DHT22;7597;53.590;10.020;2022-08-01T08:06:55;19.50;1.00
15003;DHT22;7597;53.590;10.020;2022-08-01T08:09:22;19.40;1.00
15003;DHT22;7597;53.590;10.020;2022-08-01T08:11:48;19.70;1.00
15003;DHT22;7597;53.590;10.020;2022-08-01T08:14:15;19.70;1.00
15003;DHT22;7597;53.590;10.020;2022-08-01T08:16:42;19.70;1.00
15003;DHT22;7597;53.590;10.020;2022-08-01T08:19:09;19.80;1.00
15003;DHT22;7597;53.590;10.020;2022-08-01T08:21:35;20.00;1.00
15003;DHT22;7597;53.590;10.020;2022-08-01T08:24:02;20.10;1.00
15003;DHT22;7597;53.590;10.020;2022-08-01T08:26:34;20.30;1.00
15003;DHT22;7597;53.590;10.020;2022-08-01T08:29:01;20.50;1.00
15003;DHT22;7597;53.590;10.020;2022-08-01T08:31:28;20.60;1.00
15003;DHT22;7597;53.590;10.020;2022-08-01T08:33:54;20.40;1.00
15003;DHT22;7597;53.590;10.020;2022-08-01T08:36:22;20.50;1.00
15003;DHT22;7597;53.590;10.020;2022-08-01T08:38:48;20.50;1.00
15003;DHT22;7597;53.590;10.020;2022-08-01T08:41:15;20.80;1.00
15003;DHT22;7597;53.590;10.020;2022-08-01T08:43:42;21.30;1.00
15003;DHT22;7597;53.590;10.020;2022-08-01T08:46:08;21.60;1.00
15003;DHT22;7597;53.590;10.020;2022-08-01T08:48:35;21.80;1.00
15003;DHT22;7597;53.590;10.020;2022-08-01T08:51:02;21.60;1.00
15003;DHT22;7597;53.590;10.020;2022-08-01T08:53:29;21.80;1.00
15003;DHT22;7597;53.590;10.020;2022-08-01T08:55:55;22.40;1.00
15003;DHT22;7597;53.590;10.020;2022-08-01T08:58:22;23.60;1.00
15003;DHT22;7597;53.590;10.020;2022-08-01T09:00:48;25.00;1.00
15003;DHT22;7597;53.590;10.020;2022-08-01T09:03:15;25.90;1.00
15003;DHT22;7597;53.590;10.020;2022-08-01T09:05:42;26.90;1.00
15003;DHT22;7597;53.590;10.020;2022-08-01T09:08:09;27.60;1.00
15003;DHT22;7597;53.590;10.020;2022-08-01T09:10:36;28.60;1.00
15003;DHT22;7597;53.590;10.020;2022-08-01T09:13:12;28.50;1.00
15003;DHT22;7597;53.590;10.020;2022-08-01T09:15:41;28.60;1.00
15003;DHT22;7597;53.590;10.020;2022-08-01T09:18:07;29.20;1.00
15003;DHT22;7597;53.590;10.020;2022-08-01T09:20:34;29.30;1.00
15003;DHT22;7597;53.590;10.020;2022-08-01T09:23:02;29.70;1.00
15003;DHT22;7597;53.590;10.020;2022-08-01T09:25:28;29.80;1.00
15003;DHT22;7597;53.590;10.020;2022-08-01T09:28:01;30.30;1.00
15003;DHT22;7597;53.590;10.020;2022-08-01T09:30:21;30.70;1.00
15003;DHT22;7597;53.590;10.020;2022-08-01T09:32:57;30.50;1.00
15003;DHT22;7597;53.590;10.020;2022-08-01T09:35:24;30.80;1.00
15003;DHT22;7597;53.590;10.020;2022-08-01T09:37:50;30.60;1.00
15003;DHT22;7597;53.590;10.020;2022-08-01T09:40:17;30.50;1.00
15003;DHT22;7597;53.590;10.020;2022-08-01T09:42:43;30.70;1.00
15003;DHT22;7597;53.590;10.020;2022-08-01T09:45:10;30.30;1.00
15003;DHT22;7597;53.590;10.020;2022-08-01T09:47:38;30.80;1.00
15003;DHT22;7597;53.590;10.020;2022-08-01T09:50:05;30.70;1.00
15003;DHT22;7597;53.590;10.020;2022-08-01T09:52:31;30.90;1.00
15003;DHT22;7597;53.590;10.020;2022-08-01T09:54:59;30.80;1.00
15003;DHT22;7597;53.590;10.020;2022-08-01T09:57:25;31.10;1.00
15003;DHT22;7597;53.590;10.020;2022-08-01T09:59:54;32.00;1.00
15003;DHT22;7597;53.590;10.020;2022-08-01T10:02:28;32.00;1.00
15003;DHT22;7597;53.590;10.020;2022-08-01T10:04:53;31.80;1.00
15003;DHT22;7597;53.590;10.020;2022-08-01T10:07:20;32.70;1.00
15003;DHT22;7597;53.590;10.020;2022-08-01T10:09:47;32.30;1.00
15003;DHT22;7597;53.590;10.020;2022-08-01T10:12:16;32.50;1.00
15003;DHT22;7597;53.590;10.020;2022-08-01T10:14:42;32.40;1.00
15003;DHT22;7597;53.590;10.020;2022-08-01T10:17:08;32.60;1.00
15003;DHT22;7597;53.590;10.020;2022-08-01T10:19:35;32.50;1.00
15003;DHT22;7597;53.590;10.020;2022-08-01T10:22:01;32.90;1.00
15003;DHT22;7597;53.590;10.020;2022-08-01T10:24:29;32.50;1.00
15003;DHT22;7597;53.590;10.020;2022-08-01T10:26:59;32.00;1.00
15003;DHT22;7597;53.590;10.020;2022-08-01T10:29:26;32.30;1.00
15003;DHT22;7597;53.590;10.020;2022-08-01T10:31:53;32.50;1.00
15003;DHT22;7597;53.590;10.020;2022-08-01T10:34:19;32.70;1.00
15003;DHT22;7597;53.590;10.020;2022-08-01T10:36:46;32.10;1.00
15003;DHT22;7597;53.590;10.020;2022-08-01T10:39:13;31.60;1.00
15003;DHT22;7597;53.590;10.020;2022-08-01T10:41:40;31.70;1.00
15003;DHT22;7597;53.590;10.020;2022-08-01T10:44:06;32.20;1.00
15003;DHT22;7597;53.590;10.020;2022-08-01T10:46:33;32.40;1.00
15003;DHT22;7597;53.590;10.020;2022-08-01T10:49:02;32.70;1.00
15003;DHT22;7597;53.590;10.020;2022-08-01T10:51:28;33.00;1.00
15003;DHT22;7597;53.590;10.020;2022-08-01T10:53:54;32.10;1.00
15003;DHT22;7597;53.590;10.020;2022-08-01T10:56:21;31.90;1.00
15003;DHT22;7597;53.590;10.020;2022-08-01T10:58:48;32.00;1.00
15003;DHT22;7597;53.590;10.020;2022-08-01T11:01:25;32.40;1.00
15003;DHT22;7597;53.590;10.020;2022-08-01T11:04:00;32.40;1.00
15003;DHT22;7597;53.590;10.020;2022-08-01T11:06:26;32.90;1.00
15003;DHT22;7597;53.590;10.020;2022-08-01T11:08:53;32.50;1.00
15003;DHT22;7597;53.590;10.020;2022-08-01T11:11:19;31.60;1.00
15003;DHT22;7597;53.590;10.020;2022-08-01T11:14:01;31.90;1.00
15003;DHT22;7597;53.590;10.020;2022-08-01T11:16:28;32.10;1.00
15003;DHT22;7597;53.590;10.020;2022-08-01T11:18:54;32.20;1.00
15003;DHT22;7597;53.590;10.020;2022-08-01T11:21:21;32.50;1.00
15003;DHT22;7597;53.590;10.020;2022-08-01T11:23:48;33.00;1.00
15003;DHT22;7597;53.590;10.020;2022-08-01T11:26:15;32.50;1.00
15003;DHT22;7597;53.590;10.020;2022-08-01T11:28:41;32.50;1.00
15003;DHT22;7597;53.590;10.020;2022-08-01T11:31:24;32.00;1.00
15003;DHT22;7597;53.590;10.020;2022-08-01T11:33:50;31.60;1.00
15003;DHT22;7597;53.590;10.020;2022-08-01T11:36:17;31.60;1.00
15003;DHT22;7597;53.590;10.020;2022-08-01T11:38:44;31.60;1.00
15003;DHT22;7597;53.590;10.020;2022-08-01T11:41:16;31.90;1.00
15003;DHT22;7597;53.590;10.020;2022-08-01T11:49:24;31.60;1.00
15003;DHT22;7597;53.590;10.020;2022-08-01T11:52:00;31.60;1.00
15003;DHT22;7597;53.590;10.020;2022-08-01T11:54:27;32.00;1.00
15003;DHT22;7597;53.590;10.020;2022-08-01T11:56:54;32.40;1.00
15003;DHT22;7597;53.590;10.020;2022-08-01T11:59:20;31.70;1.00
15003;DHT22;7597;53.590;10.020;2022-08-01T12:01:48;31.90;1.00
15003;DHT22;7597;53.590;10.020;2022-08-01T12:04:15;31.70;1.00
15003;DHT22;7597;53.590;10.020;2022-08-01T12:06:42;31.40;1.00
15003;DHT22;7597;53.590;10.020;2022-08-01T12:09:16;31.30;1.00
15003;DHT22;7597;53.590;10.020;2022-08-01T12:11:42;31.40;1.00
15003;DHT22;7597;53.590;10.020;2022-08-01T12:14:09;31.10;1.00
15003;DHT22;7597;53.590;10.020;2022-08-01T12:16:36;31.00;1.00
15003;DHT22;7597;53.590;10.020;2022-08-01T12:19:02;30.80;1.00
15003;DHT22;7597;53.590;10.020;2022-08-01T12:21:30;30.60;1.00
15003;DHT22;7597;53.590;10.020;2022-08-01T12:24:01;30.20;1.00
15003;DHT22;7597;53.590;10.020;2022-08-01T12:26:39;29.40;1.00
15003;DHT22;7597;53.590;10.020;2022-08-01T12:29:05;29.40;1.00
15003;DHT22;7597;53.590;10.020;2022-08-01T12:31:32;29.40;1.00
15003;DHT22;7597;53.590;10.020;2022-08-01T12:33:59;29.10;1.00
15003;DHT22;7597;53.590;10.020;2022-08-01T12:36:28;28.60;1.00
15003;DHT22;7597;53.590;10.020;2022-08-01T12:38:54;28.30;1.00
15003;DHT22;7597;53.590;10.020;2022-08-01T12:41:20;28.30;1.00
15003;DHT22;7597;53.590;10.020;2022-08-01T12:43:47;28.10;1.00
15003;DHT22;7597;53.590;10.020;2022-08-01T12:46:14;27.90;1.00
15003;DHT22;7597;53.590;10.020;2022-08-01T12:48:40;28.20;1.00
15003;DHT22;7597;53.590;10.020;2022-08-01T12:51:07;28.30;1.00
15003;DHT22;7597;53.590;10.020;2022-08-01T12:53:34;28.10;1.00
15003;DHT22;7597;53.590;10.020;2022-08-01T12:56:01;28.20;1.00
15003;DHT22;7597;53.590;10.020;2022-08-01T12:58:31;28.40;1.00
15003;DHT22;7597;53.590;10.020;2022-08-01T13:01:03;28.70;1.00
15003;DHT22;7597;53.590;10.020;2022-08-01T13:03:29;28.50;1.00
15003;DHT22;7597;53.590;10.020;2022-08-01T13:05:57;28.70;1.00
15003;DHT22;7597;53.590;10.020;2022-08-01T13:08:41;28.70;1.00
15003;DHT22;7597;53.590;10.020;2022-08-01T13:11:09;28.30;1.00
15003;DHT22;7597;53.590;10.020;2022-08-01T13:13:39;28.30;1.00
15003;DHT22;7597;53.590;10.020;2022-08-01T13:16:06;28.00;1.00
15003;DHT22;7597;53.590;10.020;2022-08-01T13:18:33;28.00;1.00
15003;DHT22;7597;53.590;10.020;2022-08-01T13:21:18;27.80;1.00
15003;DHT22;7597;53.590;10.020;2022-08-01T13:26:37;27.90;1.00
15003;DHT22;7597;53.590;10.020;2022-08-01T13:29:03;28.00;1.00
15003;DHT22;7597;53.590;10.020;2022-08-01T13:31:18;27.80;1.00
15003;DHT22;7597;53.590;10.020;2022-08-01T13:33:45;27.90;1.00
15003;DHT22;7597;53.590;10.020;2022-08-01T13:36:14;27.70;1.00
15003;DHT22;7597;53.590;10.020;2022-08-01T13:38:41;27.60;1.00
15003;DHT22;7597;53.590;10.020;2022-08-01T13:41:14;27.60;1.00
15003;DHT22;7597;53.590;10.020;2022-08-01T13:43:41;27.40;1.00
15003;DHT22;7597;53.590;10.020;2022-08-01T13:46:08;27.40;1.00
15003;DHT22;7597;53.590;10.020;2022-08-01T13:48:35;27.50;1.00
15003;DHT22;7597;53.590;10.020;2022-08-01T13:51:04;27.20;1.00
15003;DHT22;7597;53.590;10.020;2022-08-01T13:53:31;26.80;1.00
15003;DHT22;7597;53.590;10.020;2022-08-01T13:55:59;26.80;1.00
15003;DHT22;7597;53.590;10.020;2022-08-01T13:58:27;26.80;1.00
15003;DHT22;7597;53.590;10.020;2022-08-01T14:00:55;26.80;1.00
15003;DHT22;7597;53.590;10.020;2022-08-01T14:03:23;26.60;1.00
15003;DHT22;7597;53.590;10.020;2022-08-01T14:05:51;26.40;1.00
15003;DHT22;7597;53.590;10.020;2022-08-01T14:08:18;26.30;1.00
15003;DHT22;7597;53.590;10.020;2022-08-01T14:10:47;26.40;1.00
15003;DHT22;7597;53.590;10.020;2022-08-01T14:13:14;26.40;1.00
15003;DHT22;7597;53.590;10.020;2022-08-01T14:15:41;26.20;1.00
15003;DHT22;7597;53.590;10.020;2022-08-01T14:18:09;26.20;1.00
15003;DHT22;7597;53.590;10.020;2022-08-01T14:20:36;26.20;1.00
15003;DHT22;7597;53.590;10.020;2022-08-01T14:23:03;26.10;1.00
15003;DHT22;7597;53.590;10.020;2022-08-01T14:25:30;26.20;1.00
15003;DHT22;7597;53.590;10.020;2022-08-01T14:27:56;26.00;1.00
15003;DHT22;7597;53.590;10.020;2022-08-01T14:30:23;26.20;1.00
15003;DHT22;7597;53.590;10.020;2022-08-01T14:32:50;25.90;1.00
15003;DHT22;7597;53.590;10.020;2022-08-01T14:35:17;25.70;1.00
15003;DHT22;7597;53.590;10.020;2022-08-01T14:37:44;25.70;1.00
15003;DHT22;7597;53.590;10.020;2022-08-01T14:40:10;25.70;1.00
15003;DHT22;7597;53.590;10.020;2022-08-01T14:42:37;25.70;1.00
15003;DHT22;7597;53.590;10.020;2022-08-01T14:45:04;25.50;1.00
15003;DHT22;7597;53.590;10.020;2022-08-01T14:47:32;25.20;1.00
15003;DHT22;7597;53.590;10.020;2022-08-01T14:49:59;25.10;1.00
15003;DHT22;7597;53.590;10.020;2022-08-01T14:52:25;25.10;1.00
15003;DHT22;7597;53.590;10.020;2022-08-01T14:54:54;24.80;1.00
15003;DHT22;7597;53.590;10.020;2022-08-01T14:57:21;24.60;1.00
15003;DHT22;7597;53.590;10.020;2022-08-01T14:59:48;24.40;1.00
15003;DHT22;7597;53.590;10.020;2022-08-01T15:02:15;24.40;1.00
15003;DHT22;7597;53.590;10.020;2022-08-01T15:04:43;24.30;1.00
15003;DHT22;7597;53.590;10.020;2022-08-01T15:07:09;24.40;1.00
15003;DHT22;7597;53.590;10.020;2022-08-01T15:09:36;24.40;1.00
15003;DHT22;7597;53.590;10.020;2022-08-01T15:12:03;24.40;1.00
15003;DHT22;7597;53.590;10.020;2022-08-01T15:14:29;24.30;1.00
15003;DHT22;7597;53.590;10.020;2022-08-01T15:17:02;24.20;1.00
15003;DHT22;7597;53.590;10.020;2022-08-01T15:19:28;24.10;1.00
15003;DHT22;7597;53.590;10.020;2022-08-01T15:21:56;24.30;1.00
15003;DHT22;7597;53.590;10.020;2022-08-01T15:24:22;24.30;1.00
15003;DHT22;7597;53.590;10.020;2022-08-01T15:26:49;24.30;1.00
15003;DHT22;7597;53.590;10.020;2022-08-01T15:29:16;24.20;1.00
15003;DHT22;7597;53.590;10.020;2022-08-01T15:31:42;24.20;1.00
15003;DHT22;7597;53.590;10.020;2022-08-01T15:34:09;24.20;1.00
15003;DHT22;7597;53.590;10.020;2022-08-01T15:36:40;24.00;1.00
15003;DHT22;7597;53.590;10.020;2022-08-01T15:39:09;23.80;1.00
15003;DHT22;7597;53.590;10.020;2022-08-01T15:41:36;24.00;1.00
15003;DHT22;7597;53.590;10.020;2022-08-01T15:44:03;24.00;1.00
15003;DHT22;7597;53.590;10.020;2022-08-01T15:46:30;24.40;1.00
15003;DHT22;7597;53.590;10.020;2022-08-01T15:48:57;24.60;1.00
15003;DHT22;7597;53.590;10.020;2022-08-01T15:51:25;24.80;1.00
15003;DHT22;7597;53.590;10.020;2022-08-01T15:53:51;24.40;1.00
15003;DHT22;7597;53.590;10.020;2022-08-01T15:56:18;23.60;1.00
15003;DHT22;7597;53.590;10.020;2022-08-01T15:58:45;24.60;1.00
15003;DHT22;7597;53.590;10.020;2022-08-01T16:01:12;24.50;1.00